Погода Волчищевона неделю

Тверская область, Россия

23 - 29 мая
  • 23мая
    Сегодня
    +8°
    +22°
    Ясно и безоблачно
    ВремяПогодаТемператураВлажностьДавлениеВетер, м/сВероятность осадков
    00:00Ясно и безоблачно+13°C51 %750 мм3.3 м/с2 %
    03:00Ясно и безоблачно+10°C57 %751 мм3.6 м/с2 %
    06:00Ясно и безоблачно+10°C60 %752 мм3.4 м/с2 %
    09:00Ясно и безоблачно+16°C51 %753 мм2.9 м/с2 %
    12:00Ясно и безоблачно+20°C36 %753 мм3.9 м/с2 %
    15:00Ясно и безоблачно+21°C35 %753 мм3.5 м/с2 %
    18:00Ясно и безоблачно+21°C36 %753 мм3.8 м/с2 %
    21:00Ясно и безоблачно+17°C50 %754 мм2.7 м/с2 %
  • 24мая
    Пятница
    +6°
    +21°
    Ясно и безоблачно
    ВремяПогодаТемператураВлажностьДавлениеВетер, м/сВероятность осадков
    00:00Ясно и безоблачно+12°C55 %754 мм2.7 м/с2 %
    03:00Небольшая облачность+9°C65 %755 мм2.5 м/с2 %
    06:00Ясно и безоблачно+9°C67 %756 мм2.4 м/с2 %
    09:00Ясно и безоблачно+16°C46 %757 мм2.7 м/с2 %
    12:00Ясно и безоблачно+19°C34 %757 мм4.2 м/с2 %
    15:00Ясно и безоблачно+21°C31 %756 мм4.2 м/с2 %
    18:00Ясно и безоблачно+21°C33 %755 мм3.6 м/с2 %
    21:00Ясно и безоблачно+16°C48 %755 мм2.6 м/с2 %
  • 25мая
    Суббота
    +9°
    +24°
    Ясно и безоблачно
    ВремяПогодаТемператураВлажностьДавлениеВетер, м/сВероятность осадков
    00:00Ясно и безоблачно+11°C50 %755 мм3.1 м/с2 %
    03:00Ясно и безоблачно+8°C63 %755 мм2.4 м/с2 %
    06:00Ясно и безоблачно+8°C70 %755 мм2.3 м/с2 %
    09:00Ясно и безоблачно+16°C55 %755 мм2.0 м/с2 %
    12:00Ясно и безоблачно+21°C40 %754 мм2.5 м/с2 %
    15:00Ясно и безоблачно+23°C35 %753 мм2.7 м/с2 %
    18:00Ясно и безоблачно+23°C36 %752 мм2.5 м/с2 %
    21:00Ясно и безоблачно+18°C64 %751 мм2.2 м/с2 %
  • 26мая
    Воскресенье
    +11°
    +27°
    Облачно с прояснениями
    ВремяПогодаТемператураВлажностьДавлениеВетер, м/сВероятность осадков
    00:00Ясно и безоблачно+12°C74 %751 мм2.0 м/с2 %
    03:00Ясно и безоблачно+10°C80 %751 мм1.9 м/с2 %
    06:00Ясно и безоблачно+11°C80 %751 мм1.8 м/с2 %
    09:00Ясно и безоблачно+19°C60 %752 мм1.1 м/с2 %
    12:00Небольшая облачность+24°C37 %751 мм2.4 м/с2 %
    15:00Облачно с прояснениями+26°C33 %751 мм2.6 м/с9 %
    18:00Небольшая облачность+24°C47 %751 мм4.6 м/с30 %
    21:00Практически безоблачно+20°C74 %751 мм2.4 м/с18 %
  • 27мая
    Понедельник
    +11°
    +23°
    Ясно и безоблачно
    ВремяПогодаТемператураВлажностьДавлениеВетер, м/сВероятность осадков
    00:00Ясно и безоблачно+15°C93 %752 мм2.6 м/с2 %
    03:00Ясно и безоблачно+13°C90 %752 мм3.6 м/с2 %
    06:00Ясно и безоблачно+12°C65 %753 мм2.9 м/с2 %
    09:00Ясно и безоблачно+18°C55 %754 мм2.8 м/с2 %
    12:00Ясно и безоблачно+22°C44 %754 мм2.9 м/с19 %
    15:00Ясно и безоблачно+23°C39 %753 мм2.3 м/с19 %
    18:00Ясно и безоблачно+22°C39 %753 мм2.9 м/с18 %
    21:00Ясно и безоблачно+19°C54 %753 мм2.3 м/с4 %
Мы используем cookies
Соглашаюсь